sensor_id;sensor_type;location;lat;lon;timestamp;P1;durP1;ratioP1;P2;durP2;ratioP2
31224;SDS011;17847;31.524;74.366;2023-11-19T00:02:22;181.00;;;113.72;;
31224;SDS011;17847;31.524;74.366;2023-11-19T00:04:51;171.20;;;111.95;;
31224;SDS011;17847;31.524;74.366;2023-11-19T00:07:21;179.93;;;109.70;;
31224;SDS011;17847;31.524;74.366;2023-11-19T00:09:59;172.27;;;112.68;;
31224;SDS011;17847;31.524;74.366;2023-11-19T00:12:42;168.43;;;108.88;;
31224;SDS011;17847;31.524;74.366;2023-11-19T00:15:16;181.27;;;111.38;;
31224;SDS011;17847;31.524;74.366;2023-11-19T00:17:47;185.70;;;111.45;;
31224;SDS011;17847;31.524;74.366;2023-11-19T00:20:18;168.38;;;107.78;;
31224;SDS011;17847;31.524;74.366;2023-11-19T00:22:49;173.70;;;112.35;;
31224;SDS011;17847;31.524;74.366;2023-11-19T00:25:21;174.68;;;113.28;;
31224;SDS011;17847;31.524;74.366;2023-11-19T00:27:51;164.77;;;109.35;;
31224;SDS011;17847;31.524;74.366;2023-11-19T00:30:22;159.73;;;109.07;;
31224;SDS011;17847;31.524;74.366;2023-11-19T00:32:52;166.43;;;109.07;;
31224;SDS011;17847;31.524;74.366;2023-11-19T00:35:23;171.38;;;112.90;;
31224;SDS011;17847;31.524;74.366;2023-11-19T00:37:52;167.77;;;109.40;;
31224;SDS011;17847;31.524;74.366;2023-11-19T00:40:23;172.75;;;109.63;;
31224;SDS011;17847;31.524;74.366;2023-11-19T00:42:53;176.55;;;109.57;;
31224;SDS011;17847;31.524;74.366;2023-11-19T00:45:25;169.93;;;109.22;;
31224;SDS011;17847;31.524;74.366;2023-11-19T00:47:55;167.65;;;108.70;;
31224;SDS011;17847;31.524;74.366;2023-11-19T00:50:27;169.57;;;111.45;;
31224;SDS011;17847;31.524;74.366;2023-11-19T00:52:59;163.73;;;109.72;;
31224;SDS011;17847;31.524;74.366;2023-11-19T00:55:28;172.65;;;108.22;;
31224;SDS011;17847;31.524;74.366;2023-11-19T00:57:58;180.52;;;111.95;;
31224;SDS011;17847;31.524;74.366;2023-11-19T01:00:27;172.30;;;114.03;;
31224;SDS011;17847;31.524;74.366;2023-11-19T01:02:57;176.13;;;116.47;;
31224;SDS011;17847;31.524;74.366;2023-11-19T01:05:28;175.40;;;111.88;;
31224;SDS011;17847;31.524;74.366;2023-11-19T01:07:58;170.50;;;111.28;;
31224;SDS011;17847;31.524;74.366;2023-11-19T01:10:27;173.30;;;111.80;;
31224;SDS011;17847;31.524;74.366;2023-11-19T01:12:57;174.07;;;109.07;;
31224;SDS011;17847;31.524;74.366;2023-11-19T01:15:27;162.50;;;107.65;;
31224;SDS011;17847;31.524;74.366;2023-11-19T01:17:56;169.27;;;110.40;;
31224;SDS011;17847;31.524;74.366;2023-11-19T01:20:25;164.77;;;110.40;;
31224;SDS011;17847;31.524;74.366;2023-11-19T01:22:55;174.68;;;107.35;;
31224;SDS011;17847;31.524;74.366;2023-11-19T01:25:25;169.02;;;110.00;;
31224;SDS011;17847;31.524;74.366;2023-11-19T01:27:55;179.50;;;113.25;;
31224;SDS011;17847;31.524;74.366;2023-11-19T01:30:26;166.27;;;108.22;;
31224;SDS011;17847;31.524;74.366;2023-11-19T01:32:56;166.73;;;108.40;;
31224;SDS011;17847;31.524;74.366;2023-11-19T01:35:25;167.88;;;109.75;;
31224;SDS011;17847;31.524;74.366;2023-11-19T01:37:54;175.40;;;111.32;;
31224;SDS011;17847;31.524;74.366;2023-11-19T01:40:24;171.63;;;110.47;;
31224;SDS011;17847;31.524;74.366;2023-11-19T01:42:54;167.38;;;110.10;;
31224;SDS011;17847;31.524;74.366;2023-11-19T01:45:27;175.57;;;112.38;;
31224;SDS011;17847;31.524;74.366;2023-11-19T01:48:02;163.60;;;111.65;;
31224;SDS011;17847;31.524;74.366;2023-11-19T01:50:35;182.20;;;112.55;;
31224;SDS011;17847;31.524;74.366;2023-11-19T01:53:04;175.93;;;112.95;;
31224;SDS011;17847;31.524;74.366;2023-11-19T01:55:34;179.98;;;111.85;;
31224;SDS011;17847;31.524;74.366;2023-11-19T01:58:03;177.38;;;113.05;;
31224;SDS011;17847;31.524;74.366;2023-11-19T02:00:33;179.43;;;112.10;;
31224;SDS011;17847;31.524;74.366;2023-11-19T02:03:02;173.45;;;114.78;;
31224;SDS011;17847;31.524;74.366;2023-11-19T02:05:35;183.98;;;117.47;;
31224;SDS011;17847;31.524;74.366;2023-11-19T02:08:05;179.35;;;116.82;;
31224;SDS011;17847;31.524;74.366;2023-11-19T02:10:36;170.80;;;112.78;;
31224;SDS011;17847;31.524;74.366;2023-11-19T02:13:06;180.45;;;115.80;;
31224;SDS011;17847;31.524;74.366;2023-11-19T02:15:36;183.55;;;115.38;;
31224;SDS011;17847;31.524;74.366;2023-11-19T02:18:18;186.38;;;118.43;;
31224;SDS011;17847;31.524;74.366;2023-11-19T02:21:15;187.10;;;117.50;;
31224;SDS011;17847;31.524;74.366;2023-11-19T02:23:45;179.45;;;114.88;;
31224;SDS011;17847;31.524;74.366;2023-11-19T02:26:32;177.32;;;115.10;;
31224;SDS011;17847;31.524;74.366;2023-11-19T02:29:10;173.75;;;114.63;;
31224;SDS011;17847;31.524;74.366;2023-11-19T02:31:41;181.77;;;116.82;;
31224;SDS011;17847;31.524;74.366;2023-11-19T02:34:13;181.05;;;119.28;;
31224;SDS011;17847;31.524;74.366;2023-11-19T02:36:42;178.75;;;117.55;;
31224;SDS011;17847;31.524;74.366;2023-11-19T02:39:11;189.25;;;119.68;;
31224;SDS011;17847;31.524;74.366;2023-11-19T02:41:41;193.52;;;121.97;;
31224;SDS011;17847;31.524;74.366;2023-11-19T02:44:11;183.70;;;120.40;;
31224;SDS011;17847;31.524;74.366;2023-11-19T02:46:41;185.98;;;118.88;;
31224;SDS011;17847;31.524;74.366;2023-11-19T02:49:11;181.23;;;119.57;;
31224;SDS011;17847;31.524;74.366;2023-11-19T02:51:40;189.93;;;123.22;;
31224;SDS011;17847;31.524;74.366;2023-11-19T02:54:12;185.02;;;118.68;;
31224;SDS011;17847;31.524;74.366;2023-11-19T02:56:43;187.65;;;120.18;;
31224;SDS011;17847;31.524;74.366;2023-11-19T02:59:16;189.90;;;122.95;;
31224;SDS011;17847;31.524;74.366;2023-11-19T03:01:55;194.52;;;128.60;;
31224;SDS011;17847;31.524;74.366;2023-11-19T03:04:28;187.27;;;121.10;;
31224;SDS011;17847;31.524;74.366;2023-11-19T03:06:59;187.50;;;119.38;;
31224;SDS011;17847;31.524;74.366;2023-11-19T03:09:28;184.73;;;119.65;;
31224;SDS011;17847;31.524;74.366;2023-11-19T03:11:57;174.65;;;118.28;;
31224;SDS011;17847;31.524;74.366;2023-11-19T03:14:27;174.75;;;117.88;;
31224;SDS011;17847;31.524;74.366;2023-11-19T03:16:57;167.40;;;112.80;;
31224;SDS011;17847;31.524;74.366;2023-11-19T03:19:26;174.93;;;118.80;;
31224;SDS011;17847;31.524;74.366;2023-11-19T03:21:55;175.63;;;117.63;;
31224;SDS011;17847;31.524;74.366;2023-11-19T03:24:25;178.88;;;116.13;;
31224;SDS011;17847;31.524;74.366;2023-11-19T03:26:55;177.75;;;119.80;;
31224;SDS011;17847;31.524;74.366;2023-11-19T03:29:24;181.65;;;120.00;;
31224;SDS011;17847;31.524;74.366;2023-11-19T03:31:54;180.15;;;120.38;;
31224;SDS011;17847;31.524;74.366;2023-11-19T03:34:23;194.35;;;123.47;;
31224;SDS011;17847;31.524;74.366;2023-11-19T03:36:54;194.25;;;126.35;;
31224;SDS011;17847;31.524;74.366;2023-11-19T03:39:25;189.02;;;122.85;;
31224;SDS011;17847;31.524;74.366;2023-11-19T03:41:55;176.82;;;119.10;;
31224;SDS011;17847;31.524;74.366;2023-11-19T03:44:25;173.95;;;116.20;;
31224;SDS011;17847;31.524;74.366;2023-11-19T03:46:55;176.27;;;114.47;;
31224;SDS011;17847;31.524;74.366;2023-11-19T03:49:25;172.48;;;112.18;;
31224;SDS011;17847;31.524;74.366;2023-11-19T03:51:54;158.93;;;107.68;;
31224;SDS011;17847;31.524;74.366;2023-11-19T03:54:23;154.15;;;101.00;;
31224;SDS011;17847;31.524;74.366;2023-11-19T03:57:07;146.30;;;98.63;;
31224;SDS011;17847;31.524;74.366;2023-11-19T03:59:39;146.07;;;95.90;;
31224;SDS011;17847;31.524;74.366;2023-11-19T04:02:08;129.00;;;89.43;;
31224;SDS011;17847;31.524;74.366;2023-11-19T04:04:38;114.60;;;76.70;;
31224;SDS011;17847;31.524;74.366;2023-11-19T04:07:08;108.10;;;73.97;;
31224;SDS011;17847;31.524;74.366;2023-11-19T04:09:37;100.97;;;69.28;;
31224;SDS011;17847;31.524;74.366;2023-11-19T04:12:07;94.43;;;63.45;;
31224;SDS011;17847;31.524;74.366;2023-11-19T04:14:36;86.47;;;60.35;;
31224;SDS011;17847;31.524;74.366;2023-11-19T04:17:06;90.82;;;60.50;;
31224;SDS011;17847;31.524;74.366;2023-11-19T04:19:35;93.78;;;62.15;;
31224;SDS011;17847;31.524;74.366;2023-11-19T04:22:05;84.43;;;59.75;;
31224;SDS011;17847;31.524;74.366;2023-11-19T04:24:35;77.25;;;50.35;;
31224;SDS011;17847;31.524;74.366;2023-11-19T04:27:05;74.32;;;50.75;;
31224;SDS011;17847;31.524;74.366;2023-11-19T04:29:34;70.85;;;50.38;;
31224;SDS011;17847;31.524;74.366;2023-11-19T04:32:04;73.40;;;48.97;;
31224;SDS011;17847;31.524;74.366;2023-11-19T04:34:34;68.72;;;49.78;;
31224;SDS011;17847;31.524;74.366;2023-11-19T04:37:05;72.53;;;49.38;;
31224;SDS011;17847;31.524;74.366;2023-11-19T04:39:38;71.05;;;47.22;;
31224;SDS011;17847;31.524;74.366;2023-11-19T04:42:08;64.63;;;44.72;;
31224;SDS011;17847;31.524;74.366;2023-11-19T04:44:37;60.65;;;44.20;;
31224;SDS011;17847;31.524;74.366;2023-11-19T04:47:07;63.92;;;44.17;;
31224;SDS011;17847;31.524;74.366;2023-11-19T04:49:42;64.97;;;45.83;;
31224;SDS011;17847;31.524;74.366;2023-11-19T04:52:12;70.00;;;45.08;;
31224;SDS011;17847;31.524;74.366;2023-11-19T04:54:41;62.65;;;45.90;;
31224;SDS011;17847;31.524;74.366;2023-11-19T04:57:14;64.57;;;46.70;;
31224;SDS011;17847;31.524;74.366;2023-11-19T04:59:43;67.63;;;46.28;;
31224;SDS011;17847;31.524;74.366;2023-11-19T05:02:13;64.57;;;45.17;;
31224;SDS011;17847;31.524;74.366;2023-11-19T05:04:44;70.57;;;47.80;;
31224;SDS011;17847;31.524;74.366;2023-11-19T05:07:15;68.50;;;47.25;;
31224;SDS011;17847;31.524;74.366;2023-11-19T05:09:45;71.20;;;49.67;;
31224;SDS011;17847;31.524;74.366;2023-11-19T05:12:14;69.30;;;50.17;;
31224;SDS011;17847;31.524;74.366;2023-11-19T05:14:43;75.47;;;50.28;;
31224;SDS011;17847;31.524;74.366;2023-11-19T05:17:17;71.13;;;51.22;;
31224;SDS011;17847;31.524;74.366;2023-11-19T05:19:47;82.47;;;53.67;;
31224;SDS011;17847;31.524;74.366;2023-11-19T05:22:17;73.20;;;49.75;;
31224;SDS011;17847;31.524;74.366;2023-11-19T05:24:49;80.03;;;51.55;;
31224;SDS011;17847;31.524;74.366;2023-11-19T05:27:18;67.88;;;47.90;;
31224;SDS011;17847;31.524;74.366;2023-11-19T05:29:48;67.13;;;44.65;;
31224;SDS011;17847;31.524;74.366;2023-11-19T05:32:18;61.10;;;43.05;;
31224;SDS011;17847;31.524;74.366;2023-11-19T05:34:47;65.65;;;44.38;;
31224;SDS011;17847;31.524;74.366;2023-11-19T05:37:19;59.35;;;42.42;;
31224;SDS011;17847;31.524;74.366;2023-11-19T05:39:49;61.33;;;41.15;;
31224;SDS011;17847;31.524;74.366;2023-11-19T05:42:18;60.00;;;42.00;;
31224;SDS011;17847;31.524;74.366;2023-11-19T05:44:48;54.78;;;40.67;;
31224;SDS011;17847;31.524;74.366;2023-11-19T05:47:17;58.47;;;41.55;;
31224;SDS011;17847;31.524;74.366;2023-11-19T05:49:47;57.83;;;39.83;;
31224;SDS011;17847;31.524;74.366;2023-11-19T05:52:17;61.08;;;40.22;;
31224;SDS011;17847;31.524;74.366;2023-11-19T05:54:47;57.75;;;39.67;;
31224;SDS011;17847;31.524;74.366;2023-11-19T05:59:52;59.22;;;39.88;;
31224;SDS011;17847;31.524;74.366;2023-11-19T06:02:22;62.72;;;41.83;;
31224;SDS011;17847;31.524;74.366;2023-11-19T06:04:51;60.35;;;41.40;;
31224;SDS011;17847;31.524;74.366;2023-11-19T06:07:22;61.35;;;41.42;;
31224;SDS011;17847;31.524;74.366;2023-11-19T06:09:51;55.05;;;40.38;;
31224;SDS011;17847;31.524;74.366;2023-11-19T06:12:21;74.75;;;44.70;;
31224;SDS011;17847;31.524;74.366;2023-11-19T06:14:50;66.15;;;44.53;;
31224;SDS011;17847;31.524;74.366;2023-11-19T06:17:20;70.20;;;43.80;;
31224;SDS011;17847;31.524;74.366;2023-11-19T06:19:49;72.43;;;48.47;;
31224;SDS011;17847;31.524;74.366;2023-11-19T06:22:19;69.32;;;47.05;;
31224;SDS011;17847;31.524;74.366;2023-11-19T06:24:49;70.65;;;47.28;;
31224;SDS011;17847;31.524;74.366;2023-11-19T06:27:19;76.60;;;49.95;;
31224;SDS011;17847;31.524;74.366;2023-11-19T06:29:50;70.43;;;49.60;;
31224;SDS011;17847;31.524;74.366;2023-11-19T06:32:20;70.78;;;47.67;;
31224;SDS011;17847;31.524;74.366;2023-11-19T06:34:50;62.80;;;45.42;;
31224;SDS011;17847;31.524;74.366;2023-11-19T06:37:20;70.37;;;49.00;;
31224;SDS011;17847;31.524;74.366;2023-11-19T06:39:50;73.68;;;48.88;;
31224;SDS011;17847;31.524;74.366;2023-11-19T06:42:20;73.30;;;47.10;;
31224;SDS011;17847;31.524;74.366;2023-11-19T06:44:49;74.65;;;48.47;;
31224;SDS011;17847;31.524;74.366;2023-11-19T06:47:19;81.68;;;50.10;;
31224;SDS011;17847;31.524;74.366;2023-11-19T06:49:49;68.78;;;49.60;;
31224;SDS011;17847;31.524;74.366;2023-11-19T06:52:19;69.30;;;49.33;;
31224;SDS011;17847;31.524;74.366;2023-11-19T06:54:49;76.07;;;52.00;;
31224;SDS011;17847;31.524;74.366;2023-11-19T06:57:18;68.97;;;49.60;;
31224;SDS011;17847;31.524;74.366;2023-11-19T06:59:49;70.32;;;50.53;;
31224;SDS011;17847;31.524;74.366;2023-11-19T07:02:18;74.20;;;52.80;;
31224;SDS011;17847;31.524;74.366;2023-11-19T07:04:48;77.82;;;54.17;;
31224;SDS011;17847;31.524;74.366;2023-11-19T07:07:17;81.47;;;55.10;;
31224;SDS011;17847;31.524;74.366;2023-11-19T07:09:47;74.10;;;54.55;;
31224;SDS011;17847;31.524;74.366;2023-11-19T07:12:16;73.10;;;53.20;;
31224;SDS011;17847;31.524;74.366;2023-11-19T07:14:45;82.32;;;56.33;;
31224;SDS011;17847;31.524;74.366;2023-11-19T07:17:15;74.63;;;54.40;;
31224;SDS011;17847;31.524;74.366;2023-11-19T07:19:46;81.35;;;56.08;;
31224;SDS011;17847;31.524;74.366;2023-11-19T07:22:18;79.90;;;54.75;;
31224;SDS011;17847;31.524;74.366;2023-11-19T07:24:48;78.40;;;53.05;;
31224;SDS011;17847;31.524;74.366;2023-11-19T07:27:18;66.88;;;50.20;;
31224;SDS011;17847;31.524;74.366;2023-11-19T07:29:48;63.33;;;46.63;;
31224;SDS011;17847;31.524;74.366;2023-11-19T07:32:17;70.35;;;47.25;;
31224;SDS011;17847;31.524;74.366;2023-11-19T07:34:47;62.33;;;44.97;;
31224;SDS011;17847;31.524;74.366;2023-11-19T07:37:17;64.47;;;45.47;;
31224;SDS011;17847;31.524;74.366;2023-11-19T07:39:46;60.63;;;44.38;;
31224;SDS011;17847;31.524;74.366;2023-11-19T07:42:15;66.47;;;43.25;;
31224;SDS011;17847;31.524;74.366;2023-11-19T07:44:45;59.90;;;42.65;;
31224;SDS011;17847;31.524;74.366;2023-11-19T07:47:14;58.88;;;42.58;;
31224;SDS011;17847;31.524;74.366;2023-11-19T07:49:44;62.80;;;43.17;;
31224;SDS011;17847;31.524;74.366;2023-11-19T07:52:13;59.70;;;43.85;;
31224;SDS011;17847;31.524;74.366;2023-11-19T07:54:45;56.45;;;42.85;;
31224;SDS011;17847;31.524;74.366;2023-11-19T07:57:14;53.28;;;38.67;;
31224;SDS011;17847;31.524;74.366;2023-11-19T07:59:44;61.33;;;41.22;;
31224;SDS011;17847;31.524;74.366;2023-11-19T08:02:14;54.42;;;37.85;;
31224;SDS011;17847;31.524;74.366;2023-11-19T08:04:44;51.92;;;37.05;;
31224;SDS011;17847;31.524;74.366;2023-11-19T08:07:14;45.63;;;31.85;;
31224;SDS011;17847;31.524;74.366;2023-11-19T08:09:47;42.42;;;30.35;;
31224;SDS011;17847;31.524;74.366;2023-11-19T08:12:17;41.58;;;30.30;;
31224;SDS011;17847;31.524;74.366;2023-11-19T08:14:47;40.60;;;29.58;;
31224;SDS011;17847;31.524;74.366;2023-11-19T08:17:17;51.55;;;34.80;;
31224;SDS011;17847;31.524;74.366;2023-11-19T08:19:47;44.83;;;31.92;;
31224;SDS011;17847;31.524;74.366;2023-11-19T08:22:16;42.15;;;30.20;;
31224;SDS011;17847;31.524;74.366;2023-11-19T08:24:45;45.70;;;33.72;;
31224;SDS011;17847;31.524;74.366;2023-11-19T08:27:15;44.20;;;33.50;;
31224;SDS011;17847;31.524;74.366;2023-11-19T08:29:45;50.97;;;36.05;;
31224;SDS011;17847;31.524;74.366;2023-11-19T08:32:14;33.95;;;27.23;;
31224;SDS011;17847;31.524;74.366;2023-11-19T08:34:44;33.33;;;22.48;;
31224;SDS011;17847;31.524;74.366;2023-11-19T08:37:13;36.78;;;26.73;;
31224;SDS011;17847;31.524;74.366;2023-11-19T08:39:43;30.27;;;22.20;;
31224;SDS011;17847;31.524;74.366;2023-11-19T08:42:13;36.60;;;26.38;;
31224;SDS011;17847;31.524;74.366;2023-11-19T08:44:43;29.52;;;22.02;;
31224;SDS011;17847;31.524;74.366;2023-11-19T08:47:18;36.28;;;25.25;;
31224;SDS011;17847;31.524;74.366;2023-11-19T08:49:51;25.98;;;20.23;;
31224;SDS011;17847;31.524;74.366;2023-11-19T08:52:25;33.85;;;20.75;;
31224;SDS011;17847;31.524;74.366;2023-11-19T08:54:55;35.83;;;22.50;;
31224;SDS011;17847;31.524;74.366;2023-11-19T08:57:26;26.77;;;20.15;;
31224;SDS011;17847;31.524;74.366;2023-11-19T08:59:56;25.08;;;18.65;;
31224;SDS011;17847;31.524;74.366;2023-11-19T09:02:29;29.15;;;19.05;;
31224;SDS011;17847;31.524;74.366;2023-11-19T09:05:01;28.90;;;20.05;;
31224;SDS011;17847;31.524;74.366;2023-11-19T09:07:31;27.13;;;20.13;;
31224;SDS011;17847;31.524;74.366;2023-11-19T09:10:01;29.70;;;20.30;;
31224;SDS011;17847;31.524;74.366;2023-11-19T09:12:34;26.35;;;19.45;;
31224;SDS011;17847;31.524;74.366;2023-11-19T09:15:04;29.55;;;20.65;;
31224;SDS011;17847;31.524;74.366;2023-11-19T09:17:36;28.20;;;20.48;;
31224;SDS011;17847;31.524;74.366;2023-11-19T09:20:06;34.47;;;21.02;;
31224;SDS011;17847;31.524;74.366;2023-11-19T09:22:38;25.42;;;18.58;;
31224;SDS011;17847;31.524;74.366;2023-11-19T09:25:09;19.75;;;16.33;;
31224;SDS011;17847;31.524;74.366;2023-11-19T09:27:38;29.80;;;21.15;;
31224;SDS011;17847;31.524;74.366;2023-11-19T09:30:09;32.17;;;22.05;;
31224;SDS011;17847;31.524;74.366;2023-11-19T09:32:40;23.55;;;17.73;;
31224;SDS011;17847;31.524;74.366;2023-11-19T09:35:11;27.10;;;20.30;;
31224;SDS011;17847;31.524;74.366;2023-11-19T09:37:44;33.50;;;22.73;;
31224;SDS011;17847;31.524;74.366;2023-11-19T09:40:13;27.92;;;20.23;;
31224;SDS011;17847;31.524;74.366;2023-11-19T09:42:44;30.95;;;21.38;;
31224;SDS011;17847;31.524;74.366;2023-11-19T09:45:16;31.40;;;22.35;;
31224;SDS011;17847;31.524;74.366;2023-11-19T09:47:49;24.63;;;18.23;;
31224;SDS011;17847;31.524;74.366;2023-11-19T09:50:22;21.17;;;15.10;;
31224;SDS011;17847;31.524;74.366;2023-11-19T09:52:52;17.95;;;13.02;;
31224;SDS011;17847;31.524;74.366;2023-11-19T09:55:23;20.85;;;13.27;;
31224;SDS011;17847;31.524;74.366;2023-11-19T09:57:53;18.90;;;14.30;;
31224;SDS011;17847;31.524;74.366;2023-11-19T10:00:25;18.48;;;14.80;;
31224;SDS011;17847;31.524;74.366;2023-11-19T10:02:56;24.67;;;17.50;;
31224;SDS011;17847;31.524;74.366;2023-11-19T10:05:31;21.63;;;15.65;;
31224;SDS011;17847;31.524;74.366;2023-11-19T10:08:02;23.20;;;16.10;;
31224;SDS011;17847;31.524;74.366;2023-11-19T10:10:31;24.42;;;16.60;;
31224;SDS011;17847;31.524;74.366;2023-11-19T10:13:01;21.77;;;16.63;;
31224;SDS011;17847;31.524;74.366;2023-11-19T10:15:35;25.88;;;18.00;;
31224;SDS011;17847;31.524;74.366;2023-11-19T10:18:07;24.73;;;19.50;;
31224;SDS011;17847;31.524;74.366;2023-11-19T10:20:41;23.30;;;19.23;;
31224;SDS011;17847;31.524;74.366;2023-11-19T10:23:13;27.58;;;21.42;;
31224;SDS011;17847;31.524;74.366;2023-11-19T10:25:43;29.27;;;20.77;;
31224;SDS011;17847;31.524;74.366;2023-11-19T10:28:16;31.45;;;21.23;;
31224;SDS011;17847;31.524;74.366;2023-11-19T10:30:52;28.52;;;22.83;;
31224;SDS011;17847;31.524;74.366;2023-11-19T10:33:27;33.08;;;22.38;;
31224;SDS011;17847;31.524;74.366;2023-11-19T10:36:00;29.98;;;22.00;;
31224;SDS011;17847;31.524;74.366;2023-11-19T10:38:31;35.03;;;22.25;;
31224;SDS011;17847;31.524;74.366;2023-11-19T10:41:00;33.20;;;22.40;;
31224;SDS011;17847;31.524;74.366;2023-11-19T10:43:31;28.58;;;22.90;;
31224;SDS011;17847;31.524;74.366;2023-11-19T10:46:13;34.40;;;23.75;;
31224;SDS011;17847;31.524;74.366;2023-11-19T10:48:51;31.75;;;22.73;;
31224;SDS011;17847;31.524;74.366;2023-11-19T10:51:22;32.13;;;22.13;;
31224;SDS011;17847;31.524;74.366;2023-11-19T10:53:54;32.35;;;23.20;;
31224;SDS011;17847;31.524;74.366;2023-11-19T10:56:51;30.60;;;23.70;;
31224;SDS011;17847;31.524;74.366;2023-11-19T10:59:30;35.83;;;22.88;;
31224;SDS011;17847;31.524;74.366;2023-11-19T11:02:06;29.33;;;22.90;;
31224;SDS011;17847;31.524;74.366;2023-11-19T11:04:44;33.90;;;23.92;;
31224;SDS011;17847;31.524;74.366;2023-11-19T11:07:17;28.48;;;22.67;;
31224;SDS011;17847;31.524;74.366;2023-11-19T11:10:02;37.88;;;24.17;;
31224;SDS011;17847;31.524;74.366;2023-11-19T11:12:37;36.30;;;23.48;;
31224;SDS011;17847;31.524;74.366;2023-11-19T11:15:10;35.60;;;24.23;;
31224;SDS011;17847;31.524;74.366;2023-11-19T11:17:42;29.35;;;23.52;;
31224;SDS011;17847;31.524;74.366;2023-11-19T11:20:14;37.42;;;24.52;;
31224;SDS011;17847;31.524;74.366;2023-11-19T11:38:10;44.75;;;27.27;;
31224;SDS011;17847;31.524;74.366;2023-11-19T11:40:44;46.17;;;26.52;;
31224;SDS011;17847;31.524;74.366;2023-11-19T11:43:53;40.40;;;25.90;;
31224;SDS011;17847;31.524;74.366;2023-11-19T11:49:07;51.85;;;29.25;;
31224;SDS011;17847;31.524;74.366;2023-11-19T11:57:03;49.15;;;29.67;;
31224;SDS011;17847;31.524;74.366;2023-11-19T11:59:47;44.38;;;29.50;;
31224;SDS011;17847;31.524;74.366;2023-11-19T12:02:20;48.08;;;28.88;;
31224;SDS011;17847;31.524;74.366;2023-11-19T12:04:52;45.30;;;28.80;;
31224;SDS011;17847;31.524;74.366;2023-11-19T12:07:27;59.72;;;30.98;;
31224;SDS011;17847;31.524;74.366;2023-11-19T12:10:07;48.03;;;30.23;;
31224;SDS011;17847;31.524;74.366;2023-11-19T12:12:42;44.85;;;31.13;;
31224;SDS011;17847;31.524;74.366;2023-11-19T12:15:13;48.60;;;32.53;;
31224;SDS011;17847;31.524;74.366;2023-11-19T12:17:46;54.47;;;32.75;;
31224;SDS011;17847;31.524;74.366;2023-11-19T12:20:22;55.97;;;33.78;;
31224;SDS011;17847;31.524;74.366;2023-11-19T12:22:56;55.10;;;34.55;;
31224;SDS011;17847;31.524;74.366;2023-11-19T12:25:26;54.65;;;34.97;;
31224;SDS011;17847;31.524;74.366;2023-11-19T12:27:56;50.13;;;33.95;;
31224;SDS011;17847;31.524;74.366;2023-11-19T12:30:25;53.65;;;33.38;;
31224;SDS011;17847;31.524;74.366;2023-11-19T12:32:57;59.25;;;35.25;;
31224;SDS011;17847;31.524;74.366;2023-11-19T12:35:28;54.85;;;35.08;;
31224;SDS011;17847;31.524;74.366;2023-11-19T12:37:57;57.58;;;35.25;;
31224;SDS011;17847;31.524;74.366;2023-11-19T12:40:27;60.17;;;36.55;;
31224;SDS011;17847;31.524;74.366;2023-11-19T12:42:57;57.67;;;35.10;;
31224;SDS011;17847;31.524;74.366;2023-11-19T12:45:35;64.55;;;38.22;;
31224;SDS011;17847;31.524;74.366;2023-11-19T12:48:05;61.63;;;38.20;;
31224;SDS011;17847;31.524;74.366;2023-11-19T12:50:55;62.03;;;39.65;;
31224;SDS011;17847;31.524;74.366;2023-11-19T12:53:30;64.93;;;40.33;;
31224;SDS011;17847;31.524;74.366;2023-11-19T12:56:23;59.47;;;40.45;;
31224;SDS011;17847;31.524;74.366;2023-11-19T12:58:53;64.82;;;39.42;;
31224;SDS011;17847;31.524;74.366;2023-11-19T13:01:23;55.65;;;39.35;;
31224;SDS011;17847;31.524;74.366;2023-11-19T13:03:52;71.03;;;41.13;;
31224;SDS011;17847;31.524;74.366;2023-11-19T13:06:22;68.55;;;43.03;;
31224;SDS011;17847;31.524;74.366;2023-11-19T13:08:51;72.80;;;43.67;;
31224;SDS011;17847;31.524;74.366;2023-11-19T13:11:33;65.75;;;40.92;;
31224;SDS011;17847;31.524;74.366;2023-11-19T13:14:05;64.88;;;44.58;;
31224;SDS011;17847;31.524;74.366;2023-11-19T13:16:41;74.53;;;44.85;;
31224;SDS011;17847;31.524;74.366;2023-11-19T13:19:12;77.78;;;45.40;;
31224;SDS011;17847;31.524;74.366;2023-11-19T13:21:43;83.82;;;46.22;;
31224;SDS011;17847;31.524;74.366;2023-11-19T13:24:17;83.10;;;47.50;;
31224;SDS011;17847;31.524;74.366;2023-11-19T13:26:47;86.32;;;49.28;;
31224;SDS011;17847;31.524;74.366;2023-11-19T13:29:19;78.43;;;48.53;;
31224;SDS011;17847;31.524;74.366;2023-11-19T13:31:49;77.30;;;49.00;;
31224;SDS011;17847;31.524;74.366;2023-11-19T13:34:20;80.95;;;49.83;;
31224;SDS011;17847;31.524;74.366;2023-11-19T13:36:53;80.97;;;48.35;;
31224;SDS011;17847;31.524;74.366;2023-11-19T13:39:24;88.28;;;50.28;;
31224;SDS011;17847;31.524;74.366;2023-11-19T13:41:56;77.20;;;49.10;;
31224;SDS011;17847;31.524;74.366;2023-11-19T13:44:31;83.80;;;50.42;;
31224;SDS011;17847;31.524;74.366;2023-11-19T13:47:03;86.68;;;51.60;;
31224;SDS011;17847;31.524;74.366;2023-11-19T13:49:37;92.53;;;53.20;;
31224;SDS011;17847;31.524;74.366;2023-11-19T13:52:08;90.57;;;53.40;;
31224;SDS011;17847;31.524;74.366;2023-11-19T13:54:41;100.13;;;55.90;;
31224;SDS011;17847;31.524;74.366;2023-11-19T13:57:12;95.03;;;55.50;;
31224;SDS011;17847;31.524;74.366;2023-11-19T13:59:42;96.38;;;55.15;;
31224;SDS011;17847;31.524;74.366;2023-11-19T14:02:14;98.70;;;54.83;;
31224;SDS011;17847;31.524;74.366;2023-11-19T14:04:47;94.07;;;55.22;;
31224;SDS011;17847;31.524;74.366;2023-11-19T14:07:20;91.97;;;54.53;;
31224;SDS011;17847;31.524;74.366;2023-11-19T14:09:50;91.57;;;57.63;;
31224;SDS011;17847;31.524;74.366;2023-11-19T14:12:25;98.95;;;59.95;;
31224;SDS011;17847;31.524;74.366;2023-11-19T14:14:56;98.00;;;58.53;;
31224;SDS011;17847;31.524;74.366;2023-11-19T14:17:27;101.28;;;57.53;;
31224;SDS011;17847;31.524;74.366;2023-11-19T14:19:57;106.30;;;56.67;;
31224;SDS011;17847;31.524;74.366;2023-11-19T14:22:42;103.78;;;56.97;;
31224;SDS011;17847;31.524;74.366;2023-11-19T14:25:13;95.50;;;57.25;;
31224;SDS011;17847;31.524;74.366;2023-11-19T14:27:43;100.68;;;58.05;;
31224;SDS011;17847;31.524;74.366;2023-11-19T14:30:16;101.55;;;58.42;;
31224;SDS011;17847;31.524;74.366;2023-11-19T14:32:47;106.65;;;58.88;;
31224;SDS011;17847;31.524;74.366;2023-11-19T14:35:18;98.13;;;60.65;;
31224;SDS011;17847;31.524;74.366;2023-11-19T14:37:49;97.20;;;59.40;;
31224;SDS011;17847;31.524;74.366;2023-11-19T14:40:18;96.97;;;60.08;;
31224;SDS011;17847;31.524;74.366;2023-11-19T14:42:48;97.30;;;60.42;;
31224;SDS011;17847;31.524;74.366;2023-11-19T14:45:18;96.00;;;61.05;;
31224;SDS011;17847;31.524;74.366;2023-11-19T14:48:04;104.20;;;60.95;;
31224;SDS011;17847;31.524;74.366;2023-11-19T14:50:34;113.13;;;64.05;;
31224;SDS011;17847;31.524;74.366;2023-11-19T14:53:03;99.55;;;63.70;;